Time;durP1;ratioP1;P1;durP2;ratioP2;P2;SDS_P1;SDS_P2;PMS_P1;PMS_P2;Temp;Humidity;BMP_temperature;BMP_pressure;BME280_temperature;BME280_humidity;BME280_pressure;Samples;Min_cycle;Max_cycle;Signal;HPM_P1;HPM_P2
2021/06/12 00:01:01;;;;;;;15.70;14.10;;;22.80;89.30;;;;;;5095950;28;20066;-61
2021/06/12 00:03:45;;;;;;;15.00;13.70;;;22.80;89.50;;;;;;5095825;28;20078;-61
2021/06/12 00:06:29;;;;;;;;;;;22.60;89.60;;;;;;5095567;28;20031;-62
2021/06/12 00:09:13;;;;;;;15.37;13.97;;;22.50;90.20;;;;;;5080021;28;20022;-63
2021/06/12 00:11:58;;;;;;;16.60;15.30;;;22.50;90.50;;;;;;5095485;28;20321;-63
2021/06/12 00:14:43;;;;;;;15.43;13.90;;;22.40;90.20;;;;;;5095227;28;20067;-63
2021/06/12 00:17:27;;;;;;;15.65;14.07;;;22.30;90.50;;;;;;5095073;28;20027;-63
2021/06/12 00:20:16;;;;;;;16.05;14.52;;;22.20;90.50;;;;;;5095160;28;20047;-62
2021/06/12 00:23:00;;;;;;;15.57;14.07;;;22.30;90.40;;;;;;5095540;28;20556;-62
2021/06/12 00:25:44;;;;;;;14.65;13.13;;;22.20;90.30;;;;;;5079516;28;20058;-62
2021/06/12 00:28:28;;;;;;;13.98;12.68;;;22.20;90.20;;;;;;5095207;28;20027;-61
2021/06/12 00:31:13;;;;;;;15.63;14.07;;;22.20;90.20;;;;;;5095979;28;20050;-62
2021/06/12 00:33:57;;;;;;;14.45;13.05;;;22.20;90.10;;;;;;5079926;28;20077;-62
2021/06/12 00:36:41;;;;;;;14.25;12.95;;;22.20;90.00;;;;;;5082806;28;20043;-61
2021/06/12 00:39:25;;;;;;;15.70;14.10;;;22.20;90.10;;;;;;5094701;28;20035;-63
2021/06/12 00:42:09;;;;;;;15.93;14.40;;;22.10;90.00;;;;;;5095035;28;20093;-62
2021/06/12 00:44:54;;;;;;;15.13;13.00;;;22.10;90.10;;;;;;5094688;28;20473;-62
2021/06/12 00:47:38;;;;;;;16.02;14.35;;;22.10;90.10;;;;;;5094305;28;20043;-62
2021/06/12 00:50:26;;;;;;;15.98;13.88;;;22.00;90.10;;;;;;5094710;28;20035;-62
2021/06/12 00:53:10;;;;;;;16.15;14.73;;;22.00;90.20;;;;;;5092611;28;20115;-61
2021/06/12 00:55:55;;;;;;;15.95;14.43;;;22.00;90.20;;;;;;5094396;28;20375;-63
2021/06/12 00:58:43;;;;;;;17.45;15.00;;;21.90;90.20;;;;;;5089762;28;20083;-63
2021/06/12 01:01:27;;;;;;;16.88;15.15;;;21.90;90.00;;;;;;5074923;28;20077;-62
2021/06/12 01:04:11;;;;;;;18.13;15.85;;;21.90;89.90;;;;;;5094273;28;20043;-62
2021/06/12 01:06:55;;;;;;;15.70;14.15;;;21.80;89.70;;;;;;5093711;28;20039;-60
2021/06/12 01:09:40;;;;;;;;;;;21.70;89.70;;;;;;5079441;28;20062;-62
2021/06/12 01:12:43;;;;;;;17.13;15.43;;;21.70;90.10;;;;;;5091548;28;19982;-61
2021/06/12 01:15:34;;;;;;;17.42;15.57;;;21.80;90.10;;;;;;5094309;28;20147;-63
2021/06/12 01:18:25;;;;;;;15.75;14.35;;;21.80;89.70;;;;;;5093292;28;20054;-63
2021/06/12 01:21:34;;;;;;;16.55;14.95;;;21.80;89.20;;;;;;5094085;28;20512;-61
2021/06/12 01:24:56;;;;;;;17.27;15.60;;;21.60;89.90;;;;;;5093312;28;20038;-62
2021/06/12 01:27:59;;;;;;;18.67;16.80;;;21.20;90.30;;;;;;5038798;28;20146;-60
2021/06/12 01:30:48;;;;;;;19.48;17.60;;;21.10;90.70;;;;;;5092845;28;20122;-63
2021/06/12 01:33:32;;;;;;;19.02;16.83;;;20.90;90.90;;;;;;5093251;28;20078;-63
2021/06/12 01:36:17;;;;;;;17.98;16.17;;;20.80;91.10;;;;;;5091709;28;20050;-63
2021/06/12 01:39:03;;;;;;;18.25;16.45;;;20.80;91.20;;;;;;5077002;28;20035;-63
2021/06/12 01:41:49;;;;;;;19.10;17.17;;;20.90;90.80;;;;;;5078366;28;20043;-62
2021/06/12 01:44:35;;;;;;;18.83;17.23;;;20.90;90.80;;;;;;5093846;28;20074;-63
2021/06/12 01:47:20;;;;;;;18.23;16.52;;;20.90;90.60;;;;;;5093666;28;20080;-62
2021/06/12 01:50:07;;;;;;;18.30;16.60;;;20.80;90.90;;;;;;5079441;28;20050;-63
2021/06/12 01:52:53;;;;;;;19.25;17.55;;;20.60;91.30;;;;;;5093695;28;20107;-62
2021/06/12 01:55:38;;;;;;;19.33;17.40;;;20.50;91.50;;;;;;5093586;28;20035;-62
2021/06/12 01:58:24;;;;;;;18.88;17.27;;;20.50;91.30;;;;;;5093132;28;20655;-61
2021/06/12 02:01:14;;;;;;;19.15;17.55;;;20.50;91.30;;;;;;5093306;28;20043;-62
2021/06/12 02:04:01;;;;;;;18.45;16.67;;;20.50;91.40;;;;;;5073552;28;20128;-62
2021/06/12 02:06:47;;;;;;;18.83;17.13;;;20.50;91.50;;;;;;5079485;28;20090;-63
2021/06/12 02:09:32;;;;;;;18.92;17.33;;;20.40;91.60;;;;;;5073018;28;20078;-63
2021/06/12 02:12:17;;;;;;;20.17;18.15;;;20.50;91.60;;;;;;5072594;28;20082;-63
2021/06/12 02:15:05;;;;;;;21.30;19.27;;;20.40;91.50;;;;;;5073166;28;20601;-63
2021/06/12 02:17:51;;;;;;;20.30;18.17;;;20.20;91.80;;;;;;5057528;28;20034;-62
2021/06/12 02:20:38;;;;;;;21.27;19.30;;;20.10;92.10;;;;;;5072705;28;20043;-62
2021/06/12 02:23:27;;;;;;;22.08;19.95;;;19.90;92.30;;;;;;5072406;28;20036;-62
2021/06/12 02:26:13;;;;;;;22.25;20.15;;;19.90;92.20;;;;;;5086159;28;20027;-62
2021/06/12 02:28:58;;;;;;;21.83;19.50;;;20.00;92.20;;;;;;5092631;28;20046;-62
2021/06/12 02:32:02;;;;;;;;;;;20.00;92.30;;;;;;5093340;28;20729;-63
2021/06/12 02:34:47;;;;;;;20.17;18.08;;;20.10;92.10;;;;;;5092851;28;20060;-62
2021/06/12 02:37:31;;;;;;;;;;;20.10;92.20;;;;;;5092974;28;20026;-63
2021/06/12 02:40:16;;;;;;;19.37;17.37;;;20.10;92.40;;;;;;5092917;28;19919;-63
2021/06/12 02:43:00;;;;;;;20.73;18.85;;;20.20;92.10;;;;;;5092846;28;20073;-63
2021/06/12 02:45:44;;;;;;;18.90;17.05;;;20.10;92.10;;;;;;5092541;28;20078;-64
2021/06/12 02:48:31;;;;;;;18.77;16.95;;;20.20;92.20;;;;;;5077343;28;20395;-65
2021/06/12 02:51:17;;;;;;;18.13;16.25;;;20.10;92.10;;;;;;5072012;28;20094;-63
2021/06/12 02:54:02;;;;;;;18.33;16.40;;;20.10;92.30;;;;;;5072624;28;20384;-66
2021/06/12 02:56:47;;;;;;;18.98;16.98;;;20.20;92.00;;;;;;5072176;28;20039;-63
2021/06/12 02:59:33;;;;;;;18.52;16.58;;;20.20;92.10;;;;;;5072346;28;20582;-62
2021/06/12 03:02:18;;;;;;;17.88;16.27;;;20.20;92.20;;;;;;5072359;28;20043;-62
2021/06/12 03:05:03;;;;;;;18.38;16.45;;;20.30;91.90;;;;;;5071887;28;20182;-62
2021/06/12 03:07:51;;;;;;;19.30;17.40;;;20.10;92.10;;;;;;5070535;28;20031;-63
2021/06/12 03:10:37;;;;;;;19.00;16.98;;;20.10;92.40;;;;;;5092353;28;20039;-62
2021/06/12 03:13:26;;;;;;;17.60;15.77;;;20.10;92.50;;;;;;5092476;28;20054;-63
2021/06/12 03:16:13;;;;;;;19.02;17.13;;;20.20;92.20;;;;;;5092077;28;20039;-63
2021/06/12 03:18:59;;;;;;;17.02;15.52;;;20.30;92.00;;;;;;5092228;28;20135;-63
2021/06/12 03:21:44;;;;;;;18.25;16.42;;;20.30;92.00;;;;;;5092293;28;20168;-62
2021/06/12 03:24:28;;;;;;;18.30;16.60;;;20.20;92.30;;;;;;5092322;28;20106;-62
2021/06/12 03:27:14;;;;;;;17.20;15.73;;;20.30;91.90;;;;;;5071693;28;20039;-62
2021/06/12 03:29:59;;;;;;;20.75;16.83;;;20.20;92.20;;;;;;5071915;28;20083;-63
2021/06/12 03:32:45;;;;;;;17.75;16.05;;;20.20;92.20;;;;;;5071911;28;20522;-64
2021/06/12 03:35:30;;;;;;;17.33;15.57;;;20.00;92.50;;;;;;5086719;28;20031;-61
2021/06/12 03:38:15;;;;;;;16.08;14.48;;;20.10;92.40;;;;;;5091310;28;20039;-62
2021/06/12 03:40:59;;;;;;;;;;;20.30;92.10;;;;;;5092658;28;20084;-63
2021/06/12 03:43:44;;;;;;;16.55;14.95;;;20.40;91.90;;;;;;5092303;28;20050;-63
2021/06/12 03:46:28;;;;;;;15.90;14.40;;;20.50;91.60;;;;;;5091656;28;20031;-61
2021/06/12 03:49:13;;;;;;;;;;;20.60;91.50;;;;;;5056553;28;20059;-63
2021/06/12 03:51:58;;;;;;;16.38;14.75;;;20.60;91.10;;;;;;5071727;28;19979;-63
2021/06/12 03:54:42;;;;;;;16.10;14.43;;;20.60;91.30;;;;;;5071689;28;20171;-63
2021/06/12 03:57:27;;;;;;;16.35;14.85;;;20.60;91.30;;;;;;5071096;28;20081;-61
2021/06/12 04:00:11;;;;;;;;;;;20.70;91.20;;;;;;5072132;28;20040;-62
2021/06/12 04:02:56;;;;;;;15.32;13.93;;;20.70;91.10;;;;;;5071421;28;20011;-63
2021/06/12 04:05:40;;;;;;;16.90;15.30;;;20.70;91.50;;;;;;5056746;28;20124;-63
2021/06/12 04:08:24;;;;;;;16.48;14.85;;;20.70;91.30;;;;;;5074811;28;20043;-62
2021/06/12 04:11:09;;;;;;;16.17;14.55;;;20.50;91.40;;;;;;5076765;28;20115;-63
2021/06/12 04:13:52;;;;;;;17.77;15.95;;;20.50;91.60;;;;;;5091659;28;20031;-62
2021/06/12 04:16:37;;;;;;;15.95;14.40;;;20.40;91.70;;;;;;5091933;28;20052;-59
2021/06/12 04:19:22;;;;;;;17.35;15.75;;;20.40;91.70;;;;;;5091331;28;20035;-62
2021/06/12 04:22:06;;;;;;;17.83;16.13;;;20.50;91.40;;;;;;5092019;28;20092;-63
2021/06/12 04:24:50;;;;;;;15.05;13.55;;;20.60;91.30;;;;;;5091760;28;20105;-64
2021/06/12 04:27:34;;;;;;;14.25;13.05;;;20.80;91.00;;;;;;5091543;28;20398;-63
2021/06/12 04:30:20;;;;;;;16.15;14.48;;;20.90;90.70;;;;;;5094761;28;20046;-62
2021/06/12 04:33:04;;;;;;;15.90;14.30;;;20.90;90.90;;;;;;5096066;28;20035;-62
2021/06/12 04:35:49;;;;;;;;;;;20.50;91.50;;;;;;5095967;28;20080;-63
2021/06/12 04:38:33;;;;;;;13.95;12.63;;;20.70;90.90;;;;;;5094853;28;20433;-63
2021/06/12 04:41:17;;;;;;;15.70;14.27;;;20.80;91.10;;;;;;5095487;28;20047;-62
2021/06/12 04:44:01;;;;;;;15.27;13.98;;;20.50;91.30;;;;;;5095556;28;20656;-62
2021/06/12 04:46:45;;;;;;;14.63;12.80;;;20.60;91.20;;;;;;5094908;28;20553;-63
2021/06/12 04:49:29;;;;;;;12.90;11.68;;;20.80;90.90;;;;;;5075618;28;20094;-62
2021/06/12 04:52:13;;;;;;;14.88;13.43;;;21.00;90.40;;;;;;5076136;28;20031;-65
2021/06/12 04:54:58;;;;;;;15.60;14.18;;;21.10;90.40;;;;;;5060105;28;20118;-63
2021/06/12 04:57:42;;;;;;;15.40;13.90;;;21.00;90.60;;;;;;5074371;28;20693;-63
2021/06/12 05:00:26;;;;;;;14.18;12.77;;;20.70;91.30;;;;;;5074977;28;20071;-64
2021/06/12 05:03:10;;;;;;;15.90;14.20;;;20.70;91.30;;;;;;5074912;28;20086;-68
2021/06/12 05:05:54;;;;;;;15.05;13.73;;;20.90;91.20;;;;;;5074774;28;20430;-62
2021/06/12 05:08:38;;;;;;;14.68;13.25;;;21.00;91.00;;;;;;5059071;28;20039;-61
2021/06/12 05:11:23;;;;;;;14.98;13.50;;;20.70;91.70;;;;;;5074588;28;20031;-64
2021/06/12 05:14:06;;;;;;;15.32;13.85;;;20.70;91.50;;;;;;5074554;28;20391;-63
2021/06/12 05:16:51;;;;;;;16.20;14.32;;;20.80;91.50;;;;;;5074375;28;20491;-62
2021/06/12 05:19:35;;;;;;;;;;;20.80;91.40;;;;;;5074730;28;20115;-63
2021/06/12 05:22:24;;;;;;;14.75;12.45;;;20.80;91.30;;;;;;5074291;28;19919;-63
2021/06/12 05:25:08;;;;;;;13.90;12.43;;;20.80;91.00;;;;;;5078766;28;20077;-61
2021/06/12 05:27:53;;;;;;;14.07;12.70;;;20.90;90.90;;;;;;5093993;28;20047;-62
2021/06/12 05:30:37;;;;;;;13.90;12.63;;;21.00;90.70;;;;;;5094105;28;20032;-62
2021/06/12 05:33:23;;;;;;;14.07;12.82;;;21.00;90.80;;;;;;5094621;28;20039;-62
2021/06/12 05:36:07;;;;;;;15.43;12.70;;;21.00;90.70;;;;;;5094305;28;20491;-62
2021/06/12 05:38:51;;;;;;;13.55;12.25;;;21.10;90.70;;;;;;5094565;28;20111;-61
2021/06/12 05:41:38;;;;;;;14.20;12.48;;;21.00;90.70;;;;;;5079197;28;20124;-62
2021/06/12 05:44:23;;;;;;;12.27;11.07;;;21.00;91.10;;;;;;5094525;28;20043;-64
2021/06/12 05:47:07;;;;;;;;;;;21.00;91.10;;;;;;5091445;28;20541;-62
2021/06/12 05:49:51;;;;;;;12.75;10.57;;;21.20;90.70;;;;;;5073676;28;19915;-62
2021/06/12 05:52:35;;;;;;;11.98;10.57;;;21.20;91.00;;;;;;5058561;28;20031;-63
2021/06/12 05:55:20;;;;;;;10.55;9.55;;;21.30;90.10;;;;;;5073958;28;20045;-62
2021/06/12 05:58:04;;;;;;;;;;;21.50;89.50;;;;;;5073866;28;20043;-62
2021/06/12 06:00:48;;;;;;;10.63;9.63;;;21.80;89.10;;;;;;5073684;28;20347;-62
2021/06/12 06:03:33;;;;;;;10.88;9.98;;;21.50;90.00;;;;;;5057780;28;20090;-62
2021/06/12 06:06:18;;;;;;;11.73;10.48;;;21.30;90.30;;;;;;5060014;28;20039;-62
2021/06/12 06:09:02;;;;;;;11.10;9.95;;;21.50;89.90;;;;;;5078267;28;20141;-62
2021/06/12 06:11:47;;;;;;;12.45;9.43;;;21.50;89.40;;;;;;5093417;28;20117;-63
2021/06/12 06:14:31;;;;;;;11.68;10.32;;;21.40;89.80;;;;;;5093487;28;20103;-63
2021/06/12 06:17:15;;;;;;;10.27;8.95;;;21.60;89.20;;;;;;5093234;28;20427;-63
2021/06/12 06:19:59;;;;;;;10.23;9.20;;;21.70;88.80;;;;;;5093763;28;20057;-61
2021/06/12 06:22:43;;;;;;;10.85;9.50;;;22.10;88.00;;;;;;5093605;28;20071;-62
2021/06/12 06:25:26;;;;;;;10.82;9.73;;;22.00;87.00;;;;;;5093294;28;20082;-62
2021/06/12 06:28:11;;;;;;;11.02;9.95;;;21.90;88.20;;;;;;5092918;28;20506;-62
2021/06/12 06:31:05;;;;;;;10.45;9.45;;;22.10;87.80;;;;;;5093396;28;20074;-62
2021/06/12 06:33:49;;;;;;;10.98;9.48;;;22.40;87.20;;;;;;5092974;28;20070;-63
2021/06/12 06:36:33;;;;;;;11.68;10.48;;;21.90;87.80;;;;;;5093167;28;20043;-64
2021/06/12 06:39:17;;;;;;;9.75;8.85;;;21.50;90.00;;;;;;5092325;28;20047;-62
2021/06/12 06:42:03;;;;;;;12.77;11.23;;;21.50;89.90;;;;;;5093298;28;20071;-61
2021/06/12 06:44:47;;;;;;;10.95;9.85;;;21.40;89.90;;;;;;5092687;28;20047;-62
2021/06/12 06:47:31;;;;;;;12.45;10.10;;;21.70;89.10;;;;;;5086041;28;20511;-62
2021/06/12 06:50:16;;;;;;;11.60;10.43;;;21.90;88.10;;;;;;5057331;28;20518;-62
2021/06/12 06:53:00;;;;;;;10.82;9.90;;;21.80;88.70;;;;;;5056505;28;20027;-62
2021/06/12 06:55:45;;;;;;;11.68;10.55;;;22.10;88.20;;;;;;5072223;28;20403;-62
2021/06/12 06:58:29;;;;;;;11.82;10.75;;;22.30;88.40;;;;;;5072254;28;20106;-62
2021/06/12 07:01:13;;;;;;;12.82;11.57;;;22.50;87.70;;;;;;5072257;28;20051;-62
2021/06/12 07:03:57;;;;;;;13.18;11.50;;;22.40;87.80;;;;;;5071667;28;20039;-61
2021/06/12 07:06:42;;;;;;;12.57;11.38;;;21.80;89.00;;;;;;5077183;28;20089;-62
2021/06/12 07:09:26;;;;;;;12.00;10.07;;;21.60;89.20;;;;;;5092406;28;20090;-63
2021/06/12 07:12:10;;;;;;;11.93;10.75;;;22.00;88.10;;;;;;5092638;28;20114;-64
2021/06/12 07:14:55;;;;;;;11.82;10.73;;;22.30;86.80;;;;;;5092550;28;20042;-62
2021/06/12 07:17:39;;;;;;;12.05;10.85;;;22.50;86.20;;;;;;5093001;28;20047;-62
2021/06/12 07:20:23;;;;;;;11.80;10.45;;;22.60;86.10;;;;;;5092501;28;20082;-62
2021/06/12 07:23:07;;;;;;;13.15;11.35;;;22.40;87.70;;;;;;5077654;28;20726;-63
2021/06/12 07:25:52;;;;;;;11.73;10.52;;;22.30;88.20;;;;;;5092223;28;20039;-63
2021/06/12 07:28:36;;;;;;;13.48;11.98;;;22.30;88.40;;;;;;5092438;28;20088;-62
2021/06/12 07:31:20;;;;;;;13.90;11.95;;;22.10;87.90;;;;;;5092182;28;20066;-63
2021/06/12 07:34:06;;;;;;;13.45;12.05;;;22.40;87.20;;;;;;5092297;28;20081;-63
2021/06/12 07:36:50;;;;;;;12.55;11.43;;;22.30;87.90;;;;;;5092092;28;20086;-62
2021/06/12 07:39:34;;;;;;;13.30;11.32;;;22.20;88.10;;;;;;5089868;28;20070;-64
2021/06/12 07:42:18;;;;;;;15.23;11.85;;;22.10;87.90;;;;;;5081082;28;20569;-63
2021/06/12 07:45:03;;;;;;;15.40;12.23;;;22.20;87.40;;;;;;5071955;28;20039;-62
2021/06/12 07:47:48;;;;;;;12.38;11.18;;;22.40;86.60;;;;;;5079781;28;20037;-62
2021/06/12 07:50:32;;;;;;;14.25;12.20;;;22.40;86.00;;;;;;5092564;28;20518;-61
2021/06/12 07:53:16;;;;;;;11.00;9.90;;;22.60;85.10;;;;;;5076891;28;20062;-62
2021/06/12 07:56:00;;;;;;;11.98;10.85;;;22.60;84.90;;;;;;5091913;28;20039;-61
2021/06/12 07:58:44;;;;;;;12.57;11.32;;;22.80;84.00;;;;;;5092151;28;20043;-62
2021/06/12 08:01:28;;;;;;;13.02;11.68;;;22.70;84.00;;;;;;5092003;28;20042;-62
2021/06/12 08:04:12;;;;;;;12.73;11.40;;;22.40;84.30;;;;;;5093596;28;20487;-61
2021/06/12 08:06:57;;;;;;;13.57;12.15;;;22.40;85.20;;;;;;5094886;28;20371;-62
2021/06/12 08:09:41;;;;;;;12.57;11.38;;;22.20;86.00;;;;;;5095658;28;20039;-62
2021/06/12 08:12:25;;;;;;;13.38;11.98;;;22.20;86.10;;;;;;5095474;28;20509;-62
2021/06/12 08:15:10;;;;;;;12.38;11.18;;;22.20;86.70;;;;;;5095973;28;20085;-62
2021/06/12 08:17:54;;;;;;;15.30;11.65;;;22.30;86.20;;;;;;5095221;28;20533;-62
2021/06/12 08:20:38;;;;;;;13.73;11.80;;;22.40;85.70;;;;;;5095929;28;20054;-62
2021/06/12 08:23:22;;;;;;;15.60;13.20;;;22.50;85.90;;;;;;5095450;28;20165;-62
2021/06/12 08:26:06;;;;;;;13.27;11.73;;;22.60;86.00;;;;;;5079704;28;20108;-62
2021/06/12 08:28:51;;;;;;;17.45;15.75;;;23.00;85.20;;;;;;5094970;28;20089;-64
2021/06/12 08:31:36;;;;;;;17.08;15.10;;;23.00;84.20;;;;;;5095201;28;20035;-61
2021/06/12 08:34:22;;;;;;;19.33;16.58;;;23.00;84.70;;;;;;5095195;28;20030;-62
2021/06/12 08:37:06;;;;;;;19.33;16.55;;;22.80;85.30;;;;;;5079388;28;20093;-63
2021/06/12 08:39:52;;;;;;;;;;;22.60;86.30;;;;;;5095399;28;20034;-62
2021/06/12 08:42:37;;;;;;;;;;;22.40;86.50;;;;;;5095686;28;20330;-63
2021/06/12 08:45:25;;;;;;;17.02;15.32;;;22.50;86.40;;;;;;5095885;28;19919;-63
2021/06/12 08:48:10;;;;;;;17.33;15.43;;;22.80;85.30;;;;;;5085473;28;20063;-63
2021/06/12 08:50:56;;;;;;;18.08;14.68;;;23.00;85.00;;;;;;5091122;28;20085;-63
2021/06/12 08:53:40;;;;;;;17.02;13.27;;;22.90;85.10;;;;;;5097402;28;20073;-61
2021/06/12 08:56:24;;;;;;;14.50;13.10;;;23.10;85.30;;;;;;5089461;28;20030;-63
2021/06/12 08:59:09;;;;;;;13.98;12.60;;;23.30;84.00;;;;;;5096196;28;20034;-62
2021/06/12 09:01:54;;;;;;;14.88;13.38;;;23.20;83.50;;;;;;5094549;28;20015;-62
2021/06/12 09:04:45;;;;;;;14.05;12.52;;;22.90;83.70;;;;;;5080615;28;20509;-62
2021/06/12 09:07:32;;;;;;;13.98;11.48;;;22.90;83.40;;;;;;5080549;28;20043;-63
2021/06/12 09:10:24;;;;;;;15.40;13.25;;;23.00;83.40;;;;;;5095779;28;20034;-62
2021/06/12 09:13:08;;;;;;;13.13;11.50;;;22.90;83.40;;;;;;5094861;28;20432;-61
2021/06/12 09:15:55;;;;;;;14.93;11.07;;;23.00;82.70;;;;;;5074909;28;20509;-61
2021/06/12 09:18:42;;;;;;;11.60;10.25;;;23.20;82.80;;;;;;5091265;28;20035;-60
2021/06/12 09:21:29;;;;;;;9.60;8.60;;;23.20;81.70;;;;;;5087426;28;20105;-61
2021/06/12 09:24:37;;;;;;;8.50;7.70;;;23.40;81.90;;;;;;5063482;28;20044;-64
2021/06/12 09:27:21;;;;;;;8.35;7.10;;;23.40;79.50;;;;;;5072968;28;20035;-60
2021/06/12 09:30:07;;;;;;;7.95;6.70;;;23.50;79.70;;;;;;5060099;28;20032;-61
2021/06/12 09:32:51;;;;;;;10.80;7.97;;;23.60;78.70;;;;;;5075629;28;20090;-61
2021/06/12 09:35:41;;;;;;;9.45;6.75;;;23.60;79.00;;;;;;5089410;28;20093;-62
2021/06/12 09:38:29;;;;;;;8.20;5.82;;;23.90;78.90;;;;;;5080716;28;20035;-62
2021/06/12 09:41:28;;;;;;;6.30;4.97;;;24.20;77.30;;;;;;5081057;28;20044;-62
2021/06/12 09:44:33;;;;;;;7.07;5.28;;;24.20;75.40;;;;;;5065487;28;20585;-61
2021/06/12 09:47:17;;;;;;;10.68;4.95;;;23.90;75.50;;;;;;5076921;28;20466;-62
2021/06/12 09:50:04;;;;;;;5.53;4.65;;;23.70;75.10;;;;;;5078335;28;20603;-61
2021/06/12 09:52:51;;;;;;;5.20;4.30;;;23.70;73.90;;;;;;5085692;28;20120;-60
2021/06/12 09:55:35;;;;;;;5.20;3.95;;;23.90;72.60;;;;;;5073098;28;20047;-60
2021/06/12 09:58:28;;;;;;;4.78;4.25;;;24.00;71.50;;;;;;5064452;28;20092;-63
2021/06/12 10:01:15;;;;;;;4.97;4.10;;;24.00;72.40;;;;;;5073034;28;20100;-61
2021/06/12 10:04:10;;;;;;;8.13;5.03;;;24.10;72.40;;;;;;5072502;28;20051;-62
2021/06/12 10:06:55;;;;;;;5.80;5.28;;;24.00;73.50;;;;;;5075250;28;20096;-62
2021/06/12 10:09:39;;;;;;;8.32;5.57;;;23.70;75.20;;;;;;5058062;28;20031;-61
2021/06/12 10:12:23;;;;;;;5.90;5.30;;;23.60;76.70;;;;;;5058383;28;20106;-63
2021/06/12 10:15:08;;;;;;;;;;;23.70;75.50;;;;;;5058342;28;20530;-62
2021/06/12 10:17:54;;;;;;;7.20;5.28;;;23.40;74.80;;;;;;5077544;28;19997;-61
2021/06/12 10:20:38;;;;;;;6.53;5.88;;;23.30;75.90;;;;;;5097623;28;20042;-61
2021/06/12 10:23:23;;;;;;;;;;;23.10;76.40;;;;;;5107057;28;20070;-60
2021/06/12 10:26:09;;;;;;;8.18;5.28;;;23.00;76.70;;;;;;5100771;28;20007;-63
2021/06/12 10:28:53;;;;;;;5.97;5.38;;;23.10;76.40;;;;;;5094850;28;20078;-62
2021/06/12 10:31:42;;;;;;;5.10;4.60;;;23.10;75.90;;;;;;5104237;28;20034;-62
2021/06/12 10:34:28;;;;;;;5.85;4.80;;;23.00;76.00;;;;;;5080156;28;20464;-62
2021/06/12 10:37:12;;;;;;;8.63;5.00;;;22.80;76.50;;;;;;5104462;28;20059;-62
2021/06/12 10:40:03;;;;;;;;;;;23.00;76.40;;;;;;5082193;28;20047;-63
2021/06/12 10:43:08;;;;;;;7.47;5.68;;;22.90;77.30;;;;;;5108227;28;19997;-61
2021/06/12 10:46:02;;;;;;;7.57;5.68;;;22.70;77.60;;;;;;5104603;28;20093;-61
2021/06/12 10:48:52;;;;;;;7.25;5.50;;;22.60;78.10;;;;;;5111236;28;20027;-62
2021/06/12 10:51:36;;;;;;;6.95;5.47;;;22.70;78.30;;;;;;5100918;28;20043;-61
2021/06/12 10:54:23;;;;;;;8.65;5.95;;;22.50;79.20;;;;;;5100832;28;20076;-61
2021/06/12 10:57:13;;;;;;;7.72;6.38;;;22.30;80.00;;;;;;5110791;28;20521;-63
2021/06/12 11:00:03;;;;;;;8.07;6.18;;;22.40;80.50;;;;;;5103281;28;20077;-61
2021/06/12 11:02:55;;;;;;;7.90;6.43;;;22.10;80.70;;;;;;5096565;28;20055;-64
2021/06/12 11:05:39;;;;;;;8.70;6.47;;;22.10;80.60;;;;;;5105553;28;20027;-62
2021/06/12 11:08:23;;;;;;;7.07;6.30;;;22.00;81.00;;;;;;5092912;28;20039;-59
2021/06/12 11:11:31;;;;;;;8.88;6.97;;;22.00;81.90;;;;;;5097843;28;20084;-63
2021/06/12 11:14:23;;;;;;;7.68;6.35;;;22.00;82.10;;;;;;5084173;28;20557;-62
2021/06/12 11:17:09;;;;;;;8.05;6.18;;;21.90;82.50;;;;;;5086670;28;20394;-63
2021/06/12 11:19:56;;;;;;;8.55;6.35;;;22.10;82.20;;;;;;5104654;28;20042;-62
2021/06/12 11:22:57;;;;;;;8.80;6.43;;;22.20;81.90;;;;;;5096956;28;20111;-60
2021/06/12 11:25:45;;;;;;;6.82;6.22;;;22.30;81.70;;;;;;5099165;28;20413;-61
2021/06/12 11:28:32;;;;;;;7.47;6.50;;;22.20;82.50;;;;;;5089138;28;20141;-62
2021/06/12 11:31:28;;;;;;;6.93;6.18;;;21.90;83.70;;;;;;5077533;28;20572;-61
2021/06/12 11:34:23;;;;;;;8.70;5.65;;;22.00;83.40;;;;;;5092113;28;20073;-62
2021/06/12 11:37:19;;;;;;;8.30;6.03;;;22.00;84.10;;;;;;5090605;28;20035;-62
2021/06/12 11:40:06;;;;;;;7.93;6.70;;;22.00;83.70;;;;;;5085039;28;20039;-62
2021/06/12 11:42:51;;;;;;;8.85;6.55;;;22.00;84.10;;;;;;5093145;28;20059;-61
2021/06/12 11:45:36;;;;;;;7.40;6.70;;;22.10;83.20;;;;;;5072872;28;20554;-62
2021/06/12 11:48:23;;;;;;;8.73;7.03;;;22.10;83.10;;;;;;5073948;28;20490;-62
2021/06/12 11:51:16;;;;;;;8.07;6.32;;;22.20;83.30;;;;;;5073728;28;20032;-60
2021/06/12 11:54:03;;;;;;;8.10;7.07;;;22.40;81.40;;;;;;5073054;28;20031;-62
2021/06/12 11:56:49;;;;;;;6.93;6.32;;;22.10;81.80;;;;;;5057994;28;20115;-61
2021/06/12 11:59:35;;;;;;;9.23;7.22;;;22.00;82.10;;;;;;5059023;28;20055;-61
2021/06/12 12:02:20;;;;;;;8.27;6.70;;;22.10;82.60;;;;;;5096540;28;20601;-62
2021/06/12 12:05:05;;;;;;;9.88;7.15;;;22.20;81.90;;;;;;5094627;28;20130;-62
2021/06/12 12:07:49;;;;;;;7.35;6.30;;;22.00;82.30;;;;;;5100557;28;20096;-62
2021/06/12 12:10:34;;;;;;;6.53;5.80;;;21.90;83.00;;;;;;5108971;28;20403;-61
2021/06/12 12:13:38;;;;;;;8.23;6.78;;;22.00;82.50;;;;;;5112173;28;20035;-62
2021/06/12 12:16:24;;;;;;;8.98;5.90;;;21.90;83.20;;;;;;5093045;28;20031;-60
2021/06/12 12:19:09;;;;;;;9.77;6.25;;;21.60;86.50;;;;;;5103535;28;20051;-62
2021/06/12 12:21:56;;;;;;;6.43;5.82;;;21.20;88.80;;;;;;5095948;28;20047;-63
2021/06/12 12:24:41;;;;;;;6.30;5.70;;;21.20;90.10;;;;;;5079604;28;20059;-62
2021/06/12 12:27:25;;;;;;;6.13;5.53;;;21.20;90.10;;;;;;5096245;28;20059;-62
2021/06/12 12:30:10;;;;;;;5.95;5.45;;;21.20;90.00;;;;;;5088196;28;20046;-62
2021/06/12 12:33:04;;;;;;;6.03;5.47;;;21.40;90.10;;;;;;5118006;28;20081;-62
2021/06/12 12:35:49;;;;;;;6.60;5.95;;;21.70;87.90;;;;;;5093886;28;20407;-62
2021/06/12 12:38:34;;;;;;;8.77;6.30;;;21.90;88.20;;;;;;5077622;28;20508;-61
2021/06/12 12:41:19;;;;;;;6.25;5.38;;;21.90;86.80;;;;;;5064169;28;20043;-60
2021/06/12 12:44:13;;;;;;;5.75;5.25;;;22.00;85.70;;;;;;5059633;28;20086;-62
2021/06/12 12:46:57;;;;;;;5.50;5.00;;;22.00;84.20;;;;;;5073205;28;20083;-62
2021/06/12 12:49:42;;;;;;;5.93;4.82;;;22.30;84.40;;;;;;5073865;28;20027;-62
2021/06/12 12:52:28;;;;;;;5.28;4.78;;;22.30;82.50;;;;;;5074674;28;20040;-61
2021/06/12 12:55:12;;;;;;;5.63;4.70;;;22.30;80.30;;;;;;5075138;28;20059;-62
2021/06/12 12:57:57;;;;;;;5.07;4.65;;;22.50;80.50;;;;;;5075299;28;20071;-62
2021/06/12 13:00:41;;;;;;;5.38;4.72;;;22.60;80.00;;;;;;5075534;28;20043;-62
2021/06/12 13:03:25;;;;;;;5.32;4.75;;;22.40;79.10;;;;;;5075652;28;20071;-61
2021/06/12 13:06:37;;;;;;;5.55;4.80;;;22.60;78.40;;;;;;5084464;28;20062;-61
2021/06/12 13:09:21;;;;;;;6.10;4.90;;;23.00;77.20;;;;;;5092765;28;20066;-63
2021/06/12 13:12:11;;;;;;;8.32;4.63;;;23.40;76.90;;;;;;5073980;28;20109;-62
2021/06/12 13:15:01;;;;;;;5.75;4.50;;;23.30;74.90;;;;;;5090050;28;20458;-61
2021/06/12 13:17:46;;;;;;;5.20;4.70;;;23.30;75.60;;;;;;5093724;28;20046;-59
2021/06/12 13:20:30;;;;;;;;;;;23.50;75.30;;;;;;5095181;28;20038;-61
2021/06/12 13:23:41;;;;;;;4.72;4.22;;;23.90;74.40;;;;;;5092435;28;19965;-60
2021/06/12 13:26:25;;;;;;;6.13;5.07;;;23.70;76.10;;;;;;5088971;28;20080;-61
2021/06/12 13:29:17;;;;;;;5.32;4.82;;;23.80;76.60;;;;;;5084372;28;20028;-62
2021/06/12 13:32:11;;;;;;;6.03;4.90;;;24.00;77.00;;;;;;5078447;28;20077;-62
2021/06/12 13:34:56;;;;;;;6.63;5.45;;;24.20;75.80;;;;;;5094353;28;20077;-60
2021/06/12 13:37:40;;;;;;;5.82;4.78;;;24.30;76.50;;;;;;5093504;28;20469;-60
2021/06/12 13:40:24;;;;;;;8.13;5.47;;;24.40;76.00;;;;;;5075213;28;20174;-61
2021/06/12 13:43:29;;;;;;;7.53;5.20;;;24.00;76.60;;;;;;5073707;28;20565;-61
2021/06/12 13:46:17;;;;;;;6.13;5.53;;;23.80;77.80;;;;;;5073275;28;20035;-62
2021/06/12 13:49:03;;;;;;;7.80;5.38;;;23.30;76.10;;;;;;5092306;28;20047;-62
2021/06/12 13:51:47;;;;;;;8.48;5.88;;;22.70;75.90;;;;;;5090105;28;20062;-60
2021/06/12 13:54:31;;;;;;;11.43;5.65;;;22.30;75.10;;;;;;5084815;28;20123;-60
2021/06/12 13:57:19;;;;;;;5.63;5.10;;;22.30;75.00;;;;;;5076786;28;20040;-62
2021/06/12 14:00:06;;;;;;;5.70;5.20;;;22.30;75.40;;;;;;5077463;28;20419;-61
2021/06/12 14:02:50;;;;;;;8.60;6.07;;;22.30;75.00;;;;;;5093731;28;20067;-61
2021/06/12 14:05:37;;;;;;;10.75;6.70;;;22.20;74.10;;;;;;5050633;28;20402;-60
2021/06/12 14:08:22;;;;;;;7.22;6.20;;;22.00;74.60;;;;;;5093169;28;20093;-61
2021/06/12 14:11:08;;;;;;;8.52;6.30;;;22.00;75.10;;;;;;5093740;28;20032;-59
2021/06/12 14:13:52;;;;;;;9.23;7.10;;;21.70;76.60;;;;;;5091114;28;20106;-61
2021/06/12 14:16:36;;;;;;;13.07;6.93;;;21.50;77.60;;;;;;5093272;28;20399;-62